createdAt,value
2022-08-26T00:01:31.303Z,3.03
2022-08-26T00:03:58.881Z,3.70
2022-08-26T00:06:26.437Z,3.17
2022-08-26T00:08:53.422Z,3.23
2022-08-26T00:11:26.714Z,3.00
2022-08-26T00:13:54.913Z,3.30
2022-08-26T00:16:23.853Z,3.63
2022-08-26T00:18:51.406Z,3.43
2022-08-26T00:21:18.556Z,3.07
2022-08-26T00:23:46.070Z,2.73
2022-08-26T00:26:14.282Z,3.30
2022-08-26T00:28:41.352Z,3.23
2022-08-26T00:31:11.099Z,3.07
2022-08-26T00:33:41.051Z,2.53
2022-08-26T00:36:09.165Z,2.90
2022-08-26T00:38:47.146Z,3.20
2022-08-26T00:41:14.010Z,3.13
2022-08-26T00:43:47.593Z,3.40
2022-08-26T00:46:23.699Z,3.00
2022-08-26T00:48:53.993Z,2.77
2022-08-26T00:51:24.826Z,3.27
2022-08-26T00:54:04.021Z,3.37
2022-08-26T00:56:38.015Z,2.83
2022-08-26T00:59:11.890Z,3.80
2022-08-26T01:01:41.343Z,2.70
2022-08-26T01:04:09.733Z,3.90
2022-08-26T01:06:36.583Z,3.30
2022-08-26T01:09:04.014Z,4.20
2022-08-26T01:11:32.185Z,3.90
2022-08-26T01:14:02.105Z,3.40
2022-08-26T01:16:30.294Z,3.07
2022-08-26T01:19:01.740Z,3.33
2022-08-26T01:21:44.016Z,2.83
2022-08-26T01:24:12.493Z,3.60
2022-08-26T01:26:42.604Z,3.90
2022-08-26T01:29:13.309Z,3.83
2022-08-26T01:31:55.440Z,3.07
2022-08-26T01:34:26.012Z,4.27
2022-08-26T01:36:58.747Z,3.03
2022-08-26T01:39:25.440Z,3.37
2022-08-26T01:41:56.826Z,2.80
2022-08-26T01:44:29.241Z,4.00
2022-08-26T01:46:57.923Z,3.30
2022-08-26T01:49:26.731Z,3.57
2022-08-26T01:51:56.234Z,3.13
2022-08-26T01:54:25.568Z,3.20
2022-08-26T01:56:54.357Z,3.97
2022-08-26T01:59:23.715Z,3.33
2022-08-26T02:01:51.266Z,3.60
2022-08-26T02:04:33.566Z,3.10
2022-08-26T02:07:04.125Z,3.10
2022-08-26T02:09:31.157Z,3.60
2022-08-26T02:12:01.503Z,3.33
2022-08-26T02:14:36.344Z,3.10
2022-08-26T02:17:11.224Z,3.23
2022-08-26T02:19:41.701Z,3.67
2022-08-26T02:22:15.011Z,3.20
2022-08-26T02:24:52.818Z,3.13
2022-08-26T02:27:33.113Z,2.97
2022-08-26T02:30:09.195Z,3.73
2022-08-26T02:32:37.175Z,3.10
2022-08-26T02:35:08.229Z,3.03
2022-08-26T02:37:35.263Z,4.47
2022-08-26T02:40:04.075Z,3.13
2022-08-26T02:42:30.967Z,3.27
2022-08-26T02:44:57.816Z,3.60
2022-08-26T02:47:25.566Z,3.50
2022-08-26T02:49:55.981Z,3.17
2022-08-26T02:52:22.772Z,3.17
2022-08-26T02:54:49.770Z,3.07
2022-08-26T02:57:16.812Z,3.97
2022-08-26T02:59:43.915Z,2.97
2022-08-26T03:02:11.360Z,4.07
2022-08-26T03:04:39.364Z,2.97
2022-08-26T03:07:06.868Z,3.33
2022-08-26T03:09:33.891Z,3.60
2022-08-26T03:12:01.339Z,3.47
2022-08-26T03:14:29.831Z,2.77
2022-08-26T03:16:56.538Z,3.93
2022-08-26T03:19:25.154Z,3.30
2022-08-26T03:21:57.711Z,3.63
2022-08-26T03:24:25.585Z,2.90
2022-08-26T03:26:52.846Z,3.17
2022-08-26T03:29:39.558Z,3.40
2022-08-26T03:32:06.499Z,3.23
2022-08-26T03:34:33.464Z,2.87
2022-08-26T03:37:00.221Z,3.20
2022-08-26T03:39:26.938Z,3.07
2022-08-26T03:41:55.374Z,3.07
2022-08-26T03:44:22.162Z,3.27
2022-08-26T03:46:49.874Z,3.07
2022-08-26T03:49:16.663Z,3.70
2022-08-26T03:51:43.380Z,3.30
2022-08-26T03:54:11.523Z,3.10
2022-08-26T03:56:38.547Z,2.97
2022-08-26T03:59:07.625Z,3.17
2022-08-26T04:01:35.524Z,3.07
2022-08-26T04:04:03.281Z,3.07
2022-08-26T04:06:36.556Z,3.50
2022-08-26T04:09:09.161Z,3.30
2022-08-26T04:11:38.663Z,3.83
2022-08-26T04:14:09.565Z,2.87
2022-08-26T04:16:37.109Z,3.60
2022-08-26T04:19:04.355Z,3.50
2022-08-26T04:21:31.333Z,2.80
2022-08-26T04:23:58.326Z,2.83
2022-08-26T04:26:26.200Z,3.27
2022-08-26T04:28:55.178Z,3.80
2022-08-26T04:31:22.729Z,4.20
2022-08-26T04:33:50.835Z,3.17
2022-08-26T04:36:20.261Z,4.40
2022-08-26T04:38:47.927Z,3.87
2022-08-26T04:41:15.446Z,4.30
2022-08-26T04:43:44.913Z,3.63
2022-08-26T04:46:13.811Z,3.40
2022-08-26T04:48:41.240Z,3.93
2022-08-26T04:51:09.918Z,3.37
2022-08-26T04:53:37.735Z,3.70
2022-08-26T04:56:04.815Z,3.77
2022-08-26T04:58:32.519Z,3.37
2022-08-26T05:00:59.691Z,3.33
2022-08-26T05:03:30.512Z,3.37
2022-08-26T05:05:58.269Z,3.63
2022-08-26T05:08:25.683Z,3.47
2022-08-26T05:10:56.536Z,3.50
2022-08-26T05:13:26.532Z,3.70
2022-08-26T05:15:54.450Z,4.13
2022-08-26T05:18:24.360Z,3.70
2022-08-26T05:20:54.837Z,3.47
2022-08-26T05:23:23.431Z,3.30
2022-08-26T05:25:55.788Z,3.70
2022-08-26T05:28:25.410Z,3.40
2022-08-26T05:30:53.447Z,4.47
2022-08-26T05:33:20.551Z,4.13
2022-08-26T05:35:47.386Z,3.63
2022-08-26T05:38:16.782Z,4.13
2022-08-26T05:40:46.586Z,3.40
2022-08-26T05:43:14.086Z,4.13
2022-08-26T05:45:46.610Z,4.50
2022-08-26T05:48:16.149Z,3.80
2022-08-26T05:50:49.370Z,3.80
2022-08-26T05:53:18.854Z,3.77
2022-08-26T05:55:52.063Z,3.77
2022-08-26T05:58:21.352Z,3.60
2022-08-26T06:01:22.107Z,4.23
2022-08-26T06:03:52.441Z,4.10
2022-08-26T06:06:27.682Z,3.73
2022-08-26T06:08:59.188Z,3.63
2022-08-26T06:11:28.070Z,5.20
2022-08-26T06:14:00.023Z,4.70
2022-08-26T06:16:28.925Z,5.20
2022-08-26T06:18:55.977Z,4.93
2022-08-26T06:21:24.243Z,4.70
2022-08-26T06:24:13.422Z,4.90
2022-08-26T06:26:42.792Z,4.80
2022-08-26T06:29:10.259Z,5.27
2022-08-26T06:31:37.378Z,4.40
2022-08-26T06:34:10.587Z,4.50
2022-08-26T06:36:39.434Z,4.43
2022-08-26T06:39:09.493Z,3.53
2022-08-26T06:41:41.422Z,3.70
2022-08-26T06:44:10.200Z,4.30
2022-08-26T06:46:37.580Z,4.30
2022-08-26T06:49:05.600Z,4.37
2022-08-26T06:51:35.256Z,3.70
2022-08-26T06:54:06.032Z,3.57
2022-08-26T06:56:43.021Z,3.97
2022-08-26T06:59:11.599Z,4.27
2022-08-26T07:01:44.838Z,4.10
2022-08-26T07:04:15.711Z,4.63
2022-08-26T07:06:52.590Z,3.83
2022-08-26T07:09:24.871Z,4.33
2022-08-26T07:11:56.441Z,3.47
2022-08-26T07:14:25.058Z,3.87
2022-08-26T07:16:53.169Z,3.47
2022-08-26T07:19:31.208Z,4.63
2022-08-26T07:22:03.945Z,3.77
2022-08-26T07:24:32.605Z,4.10
2022-08-26T07:27:05.470Z,3.97
2022-08-26T07:29:33.307Z,5.10
2022-08-26T07:32:00.063Z,3.40
2022-08-26T07:34:27.318Z,3.60
2022-08-26T07:36:55.368Z,3.97
2022-08-26T07:39:22.807Z,4.23
2022-08-26T07:41:49.866Z,3.70
2022-08-26T07:44:16.763Z,4.13
2022-08-26T07:46:44.063Z,4.50
2022-08-26T07:49:12.322Z,3.47
2022-08-26T07:51:39.794Z,3.73
2022-08-26T07:54:07.334Z,4.40
2022-08-26T07:56:34.134Z,3.77
2022-08-26T07:59:00.895Z,4.10
2022-08-26T08:01:29.715Z,4.00
2022-08-26T08:03:57.774Z,3.87
2022-08-26T08:06:28.170Z,4.20
2022-08-26T08:08:56.235Z,4.07
2022-08-26T08:11:24.286Z,3.67
2022-08-26T08:13:56.413Z,4.40
2022-08-26T08:16:28.425Z,3.60
2022-08-26T08:18:59.359Z,4.07
2022-08-26T08:21:27.672Z,4.73
2022-08-26T08:23:57.634Z,4.10
2022-08-26T08:26:25.735Z,4.00
2022-08-26T08:28:56.810Z,4.20
2022-08-26T08:34:16.933Z,4.57
2022-08-26T08:36:46.387Z,4.00
2022-08-26T08:39:14.050Z,4.27
2022-08-26T08:41:58.990Z,4.57
2022-08-26T08:47:18.533Z,4.97
2022-08-26T08:49:47.515Z,4.10
2022-08-26T08:52:32.819Z,3.93
2022-08-26T08:54:59.609Z,4.07
2022-08-26T08:58:02.054Z,4.57
2022-08-26T09:00:39.678Z,4.07
2022-08-26T09:03:56.388Z,3.70
2022-08-26T09:06:25.508Z,4.40
2022-08-26T09:08:56.422Z,3.97
2022-08-26T09:11:23.511Z,3.60
2022-08-26T09:13:55.364Z,4.13
2022-08-26T09:16:43.992Z,3.00
2022-08-26T09:19:29.468Z,2.80
2022-08-26T09:21:58.273Z,3.27
2022-08-26T09:24:28.631Z,3.30
2022-08-26T09:26:58.283Z,3.60
2022-08-26T09:29:32.121Z,3.83
2022-08-26T09:32:25.386Z,3.13
2022-08-26T09:34:54.791Z,4.00
2022-08-26T09:37:40.485Z,3.83
2022-08-26T09:40:16.898Z,3.97
2022-08-26T09:42:43.891Z,4.10
2022-08-26T09:45:12.828Z,3.97
2022-08-26T09:47:53.856Z,4.43
2022-08-26T09:50:29.385Z,4.80
2022-08-26T09:53:14.905Z,4.47
2022-08-26T09:55:47.641Z,4.77
2022-08-26T09:58:32.613Z,5.17
2022-08-26T10:01:01.907Z,4.70
2022-08-26T10:03:33.158Z,4.70
2022-08-26T10:06:06.662Z,4.80
2022-08-26T10:08:42.595Z,4.87
2022-08-26T10:11:24.702Z,5.33
2022-08-26T10:13:56.540Z,4.53
2022-08-26T10:16:48.612Z,4.40
2022-08-26T10:19:56.134Z,4.80
2022-08-26T10:22:42.437Z,4.13
2022-08-26T10:25:16.049Z,4.70
2022-08-26T10:27:54.995Z,4.63
2022-08-26T10:30:27.702Z,4.50
2022-08-26T10:33:09.644Z,4.90
2022-08-26T10:35:44.655Z,5.13
2022-08-26T10:38:17.021Z,4.83
2022-08-26T10:40:52.937Z,5.13
2022-08-26T10:43:26.735Z,5.13
2022-08-26T10:45:59.245Z,4.80
2022-08-26T10:49:09.867Z,4.43
2022-08-26T10:51:45.687Z,4.70
2022-08-26T10:54:22.664Z,5.63
2022-08-26T10:56:57.674Z,4.37
2022-08-26T10:59:31.959Z,4.67
2022-08-26T11:02:10.758Z,5.03
2022-08-26T11:04:38.450Z,4.83
2022-08-26T11:07:29.880Z,4.17
2022-08-26T11:10:17.640Z,4.97
2022-08-26T11:12:49.112Z,4.57
2022-08-26T11:15:24.374Z,3.70
2022-08-26T11:17:55.828Z,4.57
2022-08-26T11:20:22.397Z,4.67
2022-08-26T11:22:52.831Z,5.07
2022-08-26T11:25:23.528Z,5.33
2022-08-26T11:27:56.751Z,4.85
2022-08-26T11:30:24.166Z,5.40
2022-08-26T11:32:55.297Z,5.00
2022-08-26T11:35:23.347Z,4.87
2022-08-26T11:38:15.642Z,4.80
2022-08-26T11:40:42.503Z,5.57
2022-08-26T11:43:19.723Z,5.10
2022-08-26T11:45:57.408Z,4.73
2022-08-26T11:48:27.064Z,4.43
2022-08-26T11:51:09.325Z,5.13
2022-08-26T11:53:42.570Z,4.97
2022-08-26T11:56:12.368Z,4.80
2022-08-26T11:58:43.772Z,4.87
2022-08-26T12:01:13.368Z,4.25
2022-08-26T12:03:50.196Z,3.60
2022-08-26T12:06:44.964Z,3.28
2022-08-26T12:09:21.074Z,3.27
2022-08-26T12:11:47.952Z,3.40
2022-08-26T12:14:25.035Z,4.32
2022-08-26T12:16:54.184Z,3.70
2022-08-26T12:19:28.452Z,3.75
2022-08-26T12:22:07.460Z,3.70
2022-08-26T12:24:34.388Z,3.63
2022-08-26T12:27:25.479Z,3.35
2022-08-26T12:30:21.567Z,3.53
2022-08-26T12:33:22.387Z,3.80
2022-08-26T12:35:54.401Z,3.58
2022-08-26T12:38:24.982Z,4.30
2022-08-26T12:40:51.790Z,3.30
2022-08-26T12:43:40.375Z,3.83
2022-08-26T12:46:13.628Z,3.33
2022-08-26T12:48:44.242Z,3.80
2022-08-26T12:51:24.236Z,3.50
2022-08-26T12:53:51.719Z,3.20
2022-08-26T12:56:25.270Z,3.17
2022-08-26T12:59:24.425Z,3.25
2022-08-26T13:01:52.308Z,2.93
2022-08-26T13:04:32.089Z,3.20
2022-08-26T13:07:25.444Z,3.47
2022-08-26T13:09:55.007Z,3.37
2022-08-26T13:12:41.125Z,2.63
2022-08-26T13:15:08.209Z,3.10
2022-08-26T13:17:36.017Z,2.77
2022-08-26T13:20:04.320Z,3.10
2022-08-26T13:22:31.711Z,3.20
2022-08-26T13:24:58.527Z,3.75
2022-08-26T13:27:27.272Z,3.17
2022-08-26T13:29:54.995Z,3.03
2022-08-26T13:32:27.243Z,3.20
2022-08-26T13:34:56.438Z,3.28
2022-08-26T13:37:24.327Z,3.00
2022-08-26T13:40:01.726Z,3.22
2022-08-26T13:42:29.370Z,3.45
2022-08-26T13:44:58.163Z,3.10
2022-08-26T13:47:26.091Z,2.90
2022-08-26T13:49:54.795Z,2.90
2022-08-26T13:52:25.544Z,3.20
2022-08-26T13:54:57.144Z,3.28
2022-08-26T13:57:24.734Z,2.92
2022-08-26T13:59:53.965Z,2.90
2022-08-26T14:02:20.610Z,3.03
2022-08-26T14:04:47.262Z,2.70
2022-08-26T14:07:14.159Z,3.00
2022-08-26T14:09:40.823Z,2.80
2022-08-26T14:12:07.768Z,3.33
2022-08-26T14:14:34.410Z,2.70
2022-08-26T14:17:01.514Z,2.63
2022-08-26T14:19:30.329Z,2.80
2022-08-26T14:21:57.364Z,3.17
2022-08-26T14:24:24.037Z,2.80
2022-08-26T14:26:50.725Z,2.90
2022-08-26T14:29:17.598Z,2.37
2022-08-26T14:31:44.810Z,2.80
2022-08-26T14:34:13.913Z,3.07
2022-08-26T14:36:40.608Z,2.35
2022-08-26T14:39:12.739Z,2.60
2022-08-26T14:41:54.562Z,3.08
2022-08-26T14:44:26.074Z,3.25
2022-08-26T14:46:53.458Z,2.70
2022-08-26T14:49:22.919Z,2.67
2022-08-26T14:51:50.075Z,2.88
2022-08-26T14:54:18.307Z,3.08
2022-08-26T14:56:48.823Z,2.80
2022-08-26T14:59:18.333Z,2.60
2022-08-26T15:01:45.506Z,3.20
2022-08-26T15:04:12.938Z,2.78
2022-08-26T15:06:40.613Z,3.13
2022-08-26T15:09:07.496Z,2.65
2022-08-26T15:11:34.422Z,3.33
2022-08-26T15:14:01.164Z,3.63
2022-08-26T15:16:29.116Z,3.55
2022-08-26T15:18:56.580Z,2.95
2022-08-26T15:21:23.889Z,3.10
2022-08-26T15:23:51.497Z,3.03
2022-08-26T15:26:18.637Z,3.03
2022-08-26T15:28:45.567Z,3.60
2022-08-26T15:31:12.476Z,2.85
2022-08-26T15:33:40.385Z,3.23
2022-08-26T15:36:08.866Z,2.80
2022-08-26T15:38:39.432Z,3.20
2022-08-26T15:41:08.628Z,3.47
2022-08-26T15:43:36.934Z,2.83
2022-08-26T15:46:04.527Z,2.33
2022-08-26T15:48:31.481Z,2.67
2022-08-26T15:51:01.502Z,3.33
2022-08-26T15:53:30.565Z,3.40
2022-08-26T15:55:58.648Z,2.80
2022-08-26T15:58:27.078Z,3.00
2022-08-26T16:00:57.490Z,3.20
2022-08-26T16:03:24.468Z,2.80
2022-08-26T16:05:51.309Z,2.50
2022-08-26T16:08:18.099Z,3.00
2022-08-26T16:10:50.265Z,2.90
2022-08-26T16:13:19.398Z,3.83
2022-08-26T16:15:49.558Z,2.90
2022-08-26T16:18:17.008Z,2.60
2022-08-26T16:20:55.185Z,2.87
2022-08-26T16:23:36.587Z,2.63
2022-08-26T16:26:10.914Z,3.50
2022-08-26T16:28:38.665Z,2.73
2022-08-26T16:31:06.427Z,3.17
2022-08-26T16:33:33.113Z,3.33
2022-08-26T16:35:59.846Z,3.10
2022-08-26T16:38:26.827Z,2.40
2022-08-26T16:40:53.502Z,3.10
2022-08-26T16:43:20.094Z,3.80
2022-08-26T16:45:46.774Z,3.60
2022-08-26T16:48:13.576Z,2.40
2022-08-26T16:50:43.191Z,2.70
2022-08-26T16:55:48.332Z,3.20
2022-08-26T16:58:15.183Z,3.40
2022-08-26T17:00:42.056Z,3.27
2022-08-26T17:03:09.118Z,2.90
2022-08-26T17:05:36.354Z,2.80
2022-08-26T17:08:04.563Z,3.30
2022-08-26T17:10:31.819Z,2.60
2022-08-26T17:12:58.760Z,3.03
2022-08-26T17:15:25.909Z,3.00
2022-08-26T17:17:53.708Z,3.33
2022-08-26T17:20:22.404Z,4.50
2022-08-26T17:22:51.476Z,3.20
2022-08-26T17:25:25.834Z,3.80
2022-08-26T17:27:53.082Z,2.80
2022-08-26T17:30:21.153Z,3.57
2022-08-26T17:32:48.391Z,3.03
2022-08-26T17:35:16.070Z,3.27
2022-08-26T17:37:43.332Z,3.10
2022-08-26T17:40:13.541Z,3.60
2022-08-26T17:42:40.837Z,3.17
2022-08-26T17:45:09.052Z,4.00
2022-08-26T17:47:35.856Z,4.47
2022-08-26T17:50:05.016Z,3.50
2022-08-26T17:52:31.982Z,3.43
2022-08-26T17:54:59.447Z,3.40
2022-08-26T17:57:26.592Z,3.43
2022-08-26T17:59:53.717Z,3.23
2022-08-26T18:02:21.227Z,3.40
2022-08-26T18:04:48.133Z,2.90
2022-08-26T18:07:15.819Z,3.80
2022-08-26T18:09:42.608Z,3.73
2022-08-26T18:12:09.653Z,3.37
2022-08-26T18:14:36.761Z,2.80
2022-08-26T18:17:03.796Z,2.90
2022-08-26T18:19:33.377Z,3.03
2022-08-26T18:22:00.115Z,2.70
2022-08-26T18:24:30.374Z,2.53
2022-08-26T18:26:57.313Z,3.17
2022-08-26T18:29:25.477Z,2.73
2022-08-26T18:31:52.189Z,3.23
2022-08-26T18:34:19.506Z,2.83
2022-08-26T18:36:47.276Z,2.70
2022-08-26T18:39:15.494Z,2.70
2022-08-26T18:42:03.239Z,2.40
2022-08-26T18:44:30.017Z,2.50
2022-08-26T18:46:56.703Z,3.40
2022-08-26T18:49:23.441Z,2.87
2022-08-26T18:51:52.881Z,2.97
2022-08-26T18:56:47.949Z,3.40
2022-08-26T18:59:15.073Z,2.70
2022-08-26T19:01:42.676Z,2.67
2022-08-26T19:04:14.709Z,2.47
2022-08-26T19:06:42.558Z,2.60
2022-08-26T19:09:11.884Z,2.63
2022-08-26T19:11:42.285Z,3.37
2022-08-26T19:14:13.677Z,2.80
2022-08-26T19:16:43.429Z,3.13
2022-08-26T19:19:10.301Z,3.27
2022-08-26T19:21:37.832Z,2.57
2022-08-26T19:24:09.410Z,2.60
2022-08-26T19:26:36.723Z,3.40
2022-08-26T19:29:03.804Z,3.20
2022-08-26T19:31:31.255Z,2.70
2022-08-26T19:33:59.044Z,2.70
2022-08-26T19:36:26.877Z,2.60
2022-08-26T19:38:54.514Z,2.40
2022-08-26T19:41:34.129Z,2.53
2022-08-26T19:44:13.141Z,2.87
2022-08-26T19:46:40.164Z,2.50
2022-08-26T19:49:07.656Z,2.60
2022-08-26T19:51:35.219Z,2.60
2022-08-26T19:54:02.256Z,2.97
2022-08-26T19:56:29.351Z,2.50
2022-08-26T19:58:56.442Z,3.47
2022-08-26T20:01:24.546Z,3.80
2022-08-26T20:03:51.477Z,3.80
2022-08-26T20:06:20.123Z,4.13
2022-08-26T20:08:47.390Z,3.67
2022-08-26T20:11:18.719Z,2.60
2022-08-26T20:13:47.061Z,3.00
2022-08-26T20:16:14.932Z,2.83
2022-08-26T20:19:09.353Z,2.53
2022-08-26T20:21:38.919Z,2.53
2022-08-26T20:24:11.876Z,3.00
2022-08-26T20:26:40.802Z,2.73
2022-08-26T20:29:09.128Z,2.60
2022-08-26T20:31:36.398Z,3.20
2022-08-26T20:34:03.483Z,3.07
2022-08-26T20:36:30.228Z,3.23
2022-08-26T20:38:57.310Z,3.10
2022-08-26T20:41:25.817Z,3.70
2022-08-26T20:43:53.670Z,3.13
2022-08-26T20:46:24.501Z,3.30
2022-08-26T20:48:52.954Z,3.40
2022-08-26T20:51:20.543Z,3.00
2022-08-26T20:53:47.621Z,3.40
2022-08-26T20:56:15.505Z,3.23
2022-08-26T20:58:42.696Z,3.27
2022-08-26T21:01:18.427Z,3.13
2022-08-26T21:03:45.674Z,3.30
2022-08-26T21:06:12.546Z,3.37
2022-08-26T21:08:42.652Z,2.97
2022-08-26T21:11:10.228Z,2.27
2022-08-26T21:14:01.153Z,2.90
2022-08-26T21:16:25.146Z,2.50
2022-08-26T21:18:51.823Z,2.90
2022-08-26T21:21:18.922Z,3.23
2022-08-26T21:23:52.137Z,3.13
2022-08-26T21:26:19.018Z,3.00
2022-08-26T21:28:46.373Z,3.40
2022-08-26T21:31:17.234Z,3.00
2022-08-26T21:33:44.123Z,2.83
2022-08-26T21:36:12.078Z,2.60
2022-08-26T21:38:39.433Z,3.60
2022-08-26T21:41:10.368Z,2.53
2022-08-26T21:43:37.784Z,3.17
2022-08-26T21:46:16.662Z,2.73
2022-08-26T21:48:51.878Z,2.80
2022-08-26T21:51:21.046Z,3.53
2022-08-26T21:53:48.331Z,3.40
2022-08-26T21:56:18.096Z,3.57
2022-08-26T21:58:45.610Z,3.40
2022-08-26T22:01:18.638Z,3.10
2022-08-26T22:03:47.067Z,2.87
2022-08-26T22:06:18.565Z,3.23
2022-08-26T22:08:45.251Z,3.80
2022-08-26T22:11:12.142Z,3.07
2022-08-26T22:13:40.126Z,3.50
2022-08-26T22:16:08.014Z,3.17
2022-08-26T22:18:35.938Z,3.73
2022-08-26T22:21:06.310Z,3.47
2022-08-26T22:23:35.014Z,2.90
2022-08-26T22:26:01.789Z,3.83
2022-08-26T22:28:28.781Z,3.57
2022-08-26T22:30:55.755Z,3.23
2022-08-26T22:33:23.002Z,2.93
2022-08-26T22:35:52.678Z,2.67
2022-08-26T22:38:20.083Z,3.30
2022-08-26T22:40:50.476Z,3.27
2022-08-26T22:43:18.978Z,2.53
2022-08-26T22:45:47.645Z,2.53
2022-08-26T22:48:16.731Z,2.87
2022-08-26T22:50:45.859Z,3.07
2022-08-26T22:53:13.756Z,2.80
2022-08-26T22:55:40.427Z,2.70
2022-08-26T22:58:07.622Z,2.90
2022-08-26T23:00:34.386Z,2.93
2022-08-26T23:03:02.270Z,3.07
2022-08-26T23:05:29.738Z,3.30
2022-08-26T23:07:56.909Z,2.50
2022-08-26T23:10:24.471Z,2.83
2022-08-26T23:12:52.460Z,2.27
2022-08-26T23:15:20.144Z,2.63
2022-08-26T23:17:47.503Z,3.13
2022-08-26T23:20:23.845Z,3.10
2022-08-26T23:22:50.476Z,3.00
2022-08-26T23:25:17.132Z,2.97
2022-08-26T23:27:44.473Z,2.53
2022-08-26T23:30:18.027Z,3.30
2022-08-26T23:32:45.171Z,3.23
2022-08-26T23:35:14.271Z,3.13
2022-08-26T23:37:44.814Z,2.60
2022-08-26T23:40:16.787Z,2.90
2022-08-26T23:42:44.062Z,2.70
2022-08-26T23:45:12.901Z,2.40
2022-08-26T23:47:41.158Z,2.47
2022-08-26T23:50:09.029Z,2.73
2022-08-26T23:52:54.556Z,2.83
2022-08-26T23:55:21.360Z,3.27
2022-08-26T23:57:48.053Z,3.03
